Druid Hills, Georgia
Current Conditions -  °F | °C
As of 11:53 AM on Thursday 30 Oct 2014 (Local Time) from KPDK Reporting Station
Clear Clear  
Wind Chill: 62°   Ceiling: Unl
Heat Index: 62°   Visibility: 10mi
Dew Point: 38°   Wind: 0mph
Humidity: 41%   Direction: NA
Pressure: 30.09"   Gusts: NA
Location:  33.7788°N, 84.3361°W
Report Text: KPDK 301553Z 00000KT 10SM CLR 17/03 A3009 RMK AO2 SLP188 T01670033
Loading
Personal Weather Stations






























Interactive Weather Map
Tropical Storm Tracking
New forecast layout! Learn more

10-Day Weather Forecast

Advertisements
Track Severe Weather on mobile